Ana Sayfa
METAR-TAF:

METAR-TAF

Havaalanları :

Bahreyn, Bahreyn

Enlem: 26-16N, Boylam: 050-39E, yükseklik: 2 m

Güncel hava durumu gözlemi

Rapor saat 17:30 UTC de 11 dakika önce yapıldı.
Rüzgar değişken yönden 1 kt
Sıcaklık 24°C
Nem 41%
Basınç 1017 hPa
Görüş mesafesi 10 km veya daha fazla
1500 m altında bulut yok ve kümülonimbus yok

METAR: OBBI 141730Z VRB01KT CAVOK 24/10 Q1017 NOSIG

Saat: 20:41 (17:41 UTC)

Tahmin

Rapor saat 17:00 UTC de 41 dakika önce yapıldı.
Ayın 14'si saat 18 UTC'den ayın 16'si saat 00 UTC'ye kadar geçerli Tahmin
Rüzgar değişken yönden 5 kt
Görüş mesafesi 10 km veya daha fazla
1500 m altında bulut yok ve kümülonimbus yok

TAF: OBBI 141700Z 1418/1600 VRB05KT CAVOK

4.000'den fazla havaalanı için hava durumu gözlemleri ve tahminleri (METAR ve TAF raporları).

Kullanılabilir istasyonlar harita üzerinde sarı ve kırmızı noktalarla gösterilir.

İstasyonun adını görmek için fareyi noktanın üzerinde gezdirin.

Sonrasında hava gözlem ve tahminlerini görmek için tıklayın.

Haritayı değiştirmek için: yaklaştırmak için siyah artı işaretli yeşil düğmeye ve uzaklaştırmak için de eksi işaretli düğmeye hızla tıklayın; bitişik haritalar için yeşil okları kullanın.


METAR-TAF: